Castledawson, United Kingdom
Current Conditions -  °F | °C
As of 12:20 PM on Thursday 23 Oct 2014 (Local Time) from EGAA Reporting Station
Broken Clouds Broken Clouds  
Wind Chill: 57°   Ceiling: 1900
Heat Index: 57°   Visibility: 6mi
Dew Point: 54°   Wind: 15mph
Humidity: 88%   Direction: 220°SW
Pressure: 29.8"   Gusts: NA
Location:  54.78°N, 6.56°W
Report Text: EGAA 231120Z 22013KT 9999 SCT015 BKN019 14/12 Q1009
Loading
Personal Weather Stations






























Interactive Weather Map
Tropical Storm Tracking
New forecast layout! Learn more

10-Day Weather Forecast

Advertisements
Track Severe Weather on mobile